createdAt,value
2019-04-23T00:00:07.107Z,10.3
2019-04-23T00:02:58.149Z,10.3
2019-04-23T00:05:54.715Z,10.2
2019-04-23T00:09:32.716Z,10.1
2019-04-23T00:13:03.825Z,10.1
2019-04-23T00:16:12.518Z,10
2019-04-23T00:19:39.515Z,10.1
2019-04-23T00:22:36.399Z,10.2
2019-04-23T00:28:49.906Z,10.2
2019-04-23T00:31:59.354Z,10.3
2019-04-23T00:35:05.456Z,10.4
2019-04-23T00:37:47.134Z,10.4
2019-04-23T00:40:50.737Z,10.4
2019-04-23T00:44:06.069Z,10.4
2019-04-23T00:46:54.241Z,10.4
2019-04-23T00:53:10.760Z,10.2
2019-04-23T00:56:11.415Z,10.1
2019-04-23T00:59:20.511Z,10.1
2019-04-23T01:02:36.768Z,10.1
2019-04-23T01:05:46.479Z,10.2
2019-04-23T01:08:50.565Z,10.1
2019-04-23T01:11:43.157Z,10.2
2019-04-23T01:14:47.979Z,10.2
2019-04-23T01:20:53.387Z,10.1
2019-04-23T01:22:04.083Z,10
2019-04-23T01:23:14.207Z,10.1
2019-04-23T01:24:40.751Z,10
2019-04-23T01:26:34.176Z,10
2019-04-23T01:30:13.741Z,10
2019-04-23T01:33:44.528Z,10.1
2019-04-23T01:36:55.841Z,9.9
2019-04-23T01:40:18.608Z,9.7
2019-04-23T01:43:36.364Z,9.7
2019-04-23T01:46:49.039Z,9.7
2019-04-23T01:50:01.416Z,9.7
2019-04-23T01:53:26.294Z,9.7
2019-04-23T01:56:33.001Z,9.7
2019-04-23T01:59:45.661Z,9.6
2019-04-23T02:03:07.216Z,9.7
2019-04-23T02:06:24.605Z,9.8
2019-04-23T02:09:55.124Z,9.8
2019-04-23T02:13:22.117Z,9.7
2019-04-23T02:16:35.494Z,9.9
2019-04-23T02:23:30.860Z,10.2
2019-04-23T02:27:04.968Z,10.2
2019-04-23T02:34:40.388Z,10
2019-04-23T02:38:18.288Z,10
2019-04-23T02:42:04.463Z,10
2019-04-23T02:46:01.353Z,10.3
2019-04-23T02:49:43.222Z,10.4
2019-04-23T02:57:18.412Z,10.3
2019-04-23T03:01:23.449Z,10.3
2019-04-23T03:05:19.646Z,10.2
2019-04-23T03:12:31.149Z,10.3
2019-04-23T03:16:37.524Z,10.3
2019-04-23T03:20:47.718Z,10.4
2019-04-23T03:24:43.137Z,10.4
2019-04-23T03:32:44.419Z,10.2
2019-04-23T03:37:55.415Z,10
2019-04-23T03:41:27.549Z,10.1
2019-04-23T03:45:15.719Z,10
2019-04-23T03:49:05.312Z,9.9
2019-04-23T03:53:02.767Z,9.8
2019-04-23T04:04:32.625Z,9.8
2019-04-23T04:11:26.953Z,9.8
2019-04-23T04:15:39.101Z,9.8
2019-04-23T04:19:05.896Z,9.8
2019-04-23T04:23:21.933Z,9.7
2019-04-23T04:30:20.560Z,9.8
2019-04-23T04:34:55.282Z,9.7
2019-04-23T04:38:44.686Z,9.6
2019-04-23T04:42:24.674Z,9.4
2019-04-23T04:53:09.591Z,9.4
2019-04-23T04:57:19.739Z,9.3
2019-04-23T05:04:26.163Z,9.7
2019-04-23T05:08:27.926Z,10
2019-04-23T05:12:27.232Z,10
2019-04-23T05:16:11.898Z,10
2019-04-23T05:20:25.772Z,10.2
2019-04-23T05:23:52.239Z,10.3
2019-04-23T05:30:58.507Z,10.5
2019-04-23T05:34:07.588Z,10.6
2019-04-23T05:37:30.853Z,10.8
2019-04-23T05:41:09.789Z,11
2019-04-23T05:44:29.229Z,11.2
2019-04-23T05:47:58.327Z,11.2
2019-04-23T05:54:49.528Z,11.5
2019-04-23T05:58:16.351Z,11.7
2019-04-23T06:04:49.387Z,12
2019-04-23T06:08:24.889Z,12.2
2019-04-23T06:11:56.096Z,12.4
2019-04-23T06:15:03.124Z,12.5
2019-04-23T06:18:24.113Z,12.8
2019-04-23T06:21:44.129Z,13.1
2019-04-23T06:24:57.673Z,13.5
2019-04-23T06:28:07.814Z,13.4
2019-04-23T06:31:48.592Z,13.7
2019-04-23T06:35:21.738Z,13.9
2019-04-23T06:39:00.078Z,13.6
2019-04-23T06:42:17.340Z,14
2019-04-23T06:45:37.181Z,14.2
2019-04-23T06:49:00.571Z,14.2
2019-04-23T06:52:24.552Z,14
2019-04-23T06:58:58.610Z,14.3
2019-04-23T07:02:25.698Z,14.1
2019-04-23T07:06:02.849Z,14.7
2019-04-23T07:09:38.470Z,14.8
2019-04-23T07:13:10.151Z,14.9
2019-04-23T07:16:27.482Z,15
2019-04-23T07:19:35.318Z,15
2019-04-23T07:22:56.478Z,15.2
2019-04-23T07:26:33.133Z,15.4
2019-04-23T07:29:38.799Z,15.8
2019-04-23T07:33:27.573Z,15.9
2019-04-23T07:37:04.632Z,16
2019-04-23T07:40:53.547Z,16.2
2019-04-23T07:48:01.297Z,17.6
2019-04-23T07:51:05.575Z,17.7
2019-04-23T07:58:19.327Z,17.3
2019-04-23T08:01:38.976Z,17.6
2019-04-23T08:11:44.123Z,17.3
2019-04-23T08:15:06.950Z,17.3
2019-04-23T08:18:36.021Z,17
2019-04-23T08:22:06.304Z,17.1
2019-04-23T08:25:33.607Z,17.3
2019-04-23T08:29:07.484Z,17.4
2019-04-23T08:32:18.545Z,18.7
2019-04-23T08:35:19.319Z,19
2019-04-23T08:38:35.663Z,18.8
2019-04-23T08:42:13.793Z,18.5
2019-04-23T08:45:46.058Z,18.4
2019-04-23T08:49:21.701Z,18.2
2019-04-23T08:52:34.498Z,18.5
2019-04-23T08:56:40.486Z,18.7
2019-04-23T09:00:13.734Z,18.6
2019-04-23T09:03:29.775Z,18.9
2019-04-23T09:07:03.835Z,19.5
2019-04-23T09:10:40.772Z,19.6
2019-04-23T09:14:31.331Z,19.4
2019-04-23T09:18:25.990Z,19.8
2019-04-23T09:22:07.033Z,19.2
2019-04-23T09:25:28.158Z,19.5
2019-04-23T09:28:51.339Z,19.8
2019-04-23T09:32:24.693Z,19.5
2019-04-23T09:36:06.281Z,19.4
2019-04-23T09:39:58.486Z,19.5
2019-04-23T09:43:25.175Z,19.5
2019-04-23T09:47:06.382Z,19.7
2019-04-23T09:50:41.214Z,19.9
2019-04-23T09:54:09.038Z,19.8
2019-04-23T09:57:24.120Z,18.9
2019-04-23T10:00:44.707Z,19.2
2019-04-23T10:03:25.289Z,20.5
2019-04-23T10:05:36.896Z,20.1
2019-04-23T10:07:34.613Z,20.2
2019-04-23T10:09:16.154Z,20.7
2019-04-23T10:10:36.339Z,21.1
2019-04-23T10:11:49.266Z,21
2019-04-23T10:13:02.210Z,20.7
2019-04-23T10:14:12.697Z,20.6
2019-04-23T10:15:34.875Z,20.5
2019-04-23T10:16:53.888Z,20.1
2019-04-23T10:18:05.138Z,20.2
2019-04-23T10:19:12.791Z,20.2
2019-04-23T10:20:26.402Z,20.3
2019-04-23T10:21:39.310Z,20.6
2019-04-23T10:22:52.471Z,20.7
2019-04-23T10:24:05.389Z,20.7
2019-04-23T10:25:17.113Z,20.5
2019-04-23T10:26:30.241Z,20.3
2019-04-23T10:27:43.283Z,20.3
2019-04-23T10:29:02.100Z,20.4
2019-04-23T10:30:12.239Z,20.3
2019-04-23T10:31:22.868Z,20.4
2019-04-23T10:32:35.646Z,20.5
2019-04-23T10:33:47.869Z,20.6
2019-04-23T10:35:25.487Z,20.8
2019-04-23T10:37:01.697Z,21
2019-04-23T10:38:18.148Z,20.9
2019-04-23T10:39:40.895Z,21.1
2019-04-23T10:41:07.467Z,21
2019-04-23T10:42:18.124Z,21.2
2019-04-23T10:43:36.229Z,21.5
2019-04-23T10:45:25.627Z,21.7
2019-04-23T10:48:27.822Z,21.7
2019-04-23T10:52:18.887Z,22.1
2019-04-23T10:59:26.812Z,22.2
2019-04-23T11:02:47.152Z,22.8
2019-04-23T11:07:25.825Z,22.9
2019-04-23T11:10:43.827Z,22.1
2019-04-23T11:14:09.443Z,22.4
2019-04-23T11:17:25.733Z,22.1
2019-04-23T11:20:55.684Z,22.5
2019-04-23T11:24:41.343Z,23.1
2019-04-23T11:28:25.564Z,23.4
2019-04-23T11:32:46.304Z,23.5
2019-04-23T11:39:59.920Z,22.6
2019-04-23T11:43:26.742Z,23
2019-04-23T11:47:30.330Z,22.5
2019-04-23T11:51:45.719Z,22.9
2019-04-23T11:58:40.487Z,23.6
2019-04-23T12:02:21.829Z,23.9
2019-04-23T12:05:47.985Z,23.1
2019-04-23T12:09:23.756Z,23.6
2019-04-23T12:13:11.685Z,24
2019-04-23T12:16:46.899Z,24.2
2019-04-23T12:21:03.567Z,24.3
2019-04-23T12:27:58.376Z,23.8
2019-04-23T12:31:55.551Z,23.5
2019-04-23T12:35:49.258Z,23.6
2019-04-23T12:39:32.714Z,24.2
2019-04-23T12:43:18.800Z,24.1
2019-04-23T12:46:37.691Z,23.9
2019-04-23T12:51:16.703Z,24.6
2019-04-23T12:55:11.823Z,23.2
2019-04-23T12:58:37.579Z,23.4
2019-04-23T13:02:24.687Z,24.1
2019-04-23T13:05:35.529Z,24
2019-04-23T13:09:00.173Z,24.1
2019-04-23T13:13:14.652Z,23.7
2019-04-23T13:17:00.233Z,23.6
2019-04-23T13:24:32.478Z,23.5
2019-04-23T13:31:28.731Z,23.3
2019-04-23T13:35:16.819Z,23
2019-04-23T13:38:46.585Z,23.9
2019-04-23T13:42:21.920Z,24.3
2019-04-23T13:45:32.694Z,24.5
2019-04-23T13:48:52.063Z,24.1
2019-04-23T13:53:27.872Z,23.8
2019-04-23T13:58:02.126Z,23.4
2019-04-23T14:01:39.109Z,23.9
2019-04-23T14:04:57.435Z,23.7
2019-04-23T14:08:40.697Z,23.8
2019-04-23T14:12:21.996Z,23.7
2019-04-23T14:20:31.432Z,23
2019-04-23T14:24:25.867Z,23.4
2019-04-23T14:31:27.254Z,23.6
2019-04-23T14:34:53.856Z,23.6
2019-04-23T14:38:42.365Z,23.5
2019-04-23T14:42:33.011Z,23.8
2019-04-23T14:46:49.010Z,23.6
2019-04-23T22:05:00.499Z,14.6
2019-04-23T22:08:52.253Z,14.6
2019-04-23T22:12:30.166Z,14.5
2019-04-23T22:16:33.562Z,14.4
2019-04-23T22:20:17.500Z,14.3
